sensor_id;sensor_type;location;lat;lon;timestamp;P1;durP1;ratioP1;P2;durP2;ratioP2
4867;SDS011;2448;48.086;10.862;2023-03-23T00:01:05;5.53;;;3.53;;
4867;SDS011;2448;48.086;10.862;2023-03-23T00:03:31;3.00;;;2.80;;
4867;SDS011;2448;48.086;10.862;2023-03-23T00:05:59;3.77;;;3.00;;
4867;SDS011;2448;48.086;10.862;2023-03-23T00:08:30;3.97;;;3.47;;
4867;SDS011;2448;48.086;10.862;2023-03-23T00:10:55;6.97;;;3.73;;
4867;SDS011;2448;48.086;10.862;2023-03-23T00:13:23;4.10;;;3.37;;
4867;SDS011;2448;48.086;10.862;2023-03-23T00:15:49;3.43;;;3.10;;
4867;SDS011;2448;48.086;10.862;2023-03-23T00:18:17;6.73;;;3.60;;
4867;SDS011;2448;48.086;10.862;2023-03-23T00:20:46;8.60;;;3.23;;
4867;SDS011;2448;48.086;10.862;2023-03-23T00:23:14;4.60;;;3.20;;
4867;SDS011;2448;48.086;10.862;2023-03-23T00:25:47;3.90;;;3.00;;
4867;SDS011;2448;48.086;10.862;2023-03-23T00:28:12;3.50;;;3.20;;
4867;SDS011;2448;48.086;10.862;2023-03-23T00:30:39;3.40;;;3.10;;
4867;SDS011;2448;48.086;10.862;2023-03-23T00:33:07;3.80;;;3.20;;
4867;SDS011;2448;48.086;10.862;2023-03-23T00:35:32;4.60;;;3.43;;
4867;SDS011;2448;48.086;10.862;2023-03-23T00:37:59;3.87;;;3.33;;
4867;SDS011;2448;48.086;10.862;2023-03-23T00:40:25;7.37;;;3.90;;
4867;SDS011;2448;48.086;10.862;2023-03-23T00:42:52;4.60;;;4.10;;
4867;SDS011;2448;48.086;10.862;2023-03-23T00:45:17;3.37;;;2.90;;
4867;SDS011;2448;48.086;10.862;2023-03-23T00:47:43;3.80;;;2.97;;
4867;SDS011;2448;48.086;10.862;2023-03-23T00:50:11;5.50;;;3.80;;
4867;SDS011;2448;48.086;10.862;2023-03-23T00:52:38;6.33;;;3.60;;
4867;SDS011;2448;48.086;10.862;2023-03-23T00:55:03;6.20;;;4.00;;
4867;SDS011;2448;48.086;10.862;2023-03-23T00:57:29;4.00;;;3.30;;
4867;SDS011;2448;48.086;10.862;2023-03-23T00:59:54;3.50;;;3.17;;
4867;SDS011;2448;48.086;10.862;2023-03-23T01:02:20;6.20;;;3.00;;
4867;SDS011;2448;48.086;10.862;2023-03-23T01:04:49;4.90;;;3.47;;
4867;SDS011;2448;48.086;10.862;2023-03-23T01:07:17;3.80;;;3.43;;
4867;SDS011;2448;48.086;10.862;2023-03-23T01:09:43;4.23;;;2.93;;
4867;SDS011;2448;48.086;10.862;2023-03-23T01:12:11;5.10;;;3.30;;
4867;SDS011;2448;48.086;10.862;2023-03-23T01:14:36;3.10;;;2.80;;
4867;SDS011;2448;48.086;10.862;2023-03-23T01:17:01;3.17;;;2.87;;
4867;SDS011;2448;48.086;10.862;2023-03-23T01:19:27;2.77;;;2.57;;
4867;SDS011;2448;48.086;10.862;2023-03-23T01:21:53;6.80;;;3.37;;
4867;SDS011;2448;48.086;10.862;2023-03-23T01:24:18;4.50;;;3.33;;
4867;SDS011;2448;48.086;10.862;2023-03-23T01:26:44;4.80;;;3.10;;
4867;SDS011;2448;48.086;10.862;2023-03-23T01:29:09;6.50;;;2.83;;
4867;SDS011;2448;48.086;10.862;2023-03-23T01:31:35;6.30;;;3.50;;
4867;SDS011;2448;48.086;10.862;2023-03-23T01:34:03;6.30;;;3.10;;
4867;SDS011;2448;48.086;10.862;2023-03-23T01:36:29;3.27;;;2.97;;
4867;SDS011;2448;48.086;10.862;2023-03-23T01:39:03;4.07;;;3.10;;
4867;SDS011;2448;48.086;10.862;2023-03-23T01:41:30;3.47;;;3.07;;
4867;SDS011;2448;48.086;10.862;2023-03-23T01:44:04;3.50;;;3.20;;
4867;SDS011;2448;48.086;10.862;2023-03-23T01:46:44;4.30;;;3.03;;
4867;SDS011;2448;48.086;10.862;2023-03-23T01:51:37;4.50;;;3.13;;
4867;SDS011;2448;48.086;10.862;2023-03-23T01:54:06;3.73;;;3.43;;
4867;SDS011;2448;48.086;10.862;2023-03-23T01:56:34;2.87;;;2.67;;
4867;SDS011;2448;48.086;10.862;2023-03-23T01:59:03;2.77;;;2.57;;
4867;SDS011;2448;48.086;10.862;2023-03-23T02:01:29;11.70;;;3.23;;
4867;SDS011;2448;48.086;10.862;2023-03-23T02:03:55;5.60;;;3.70;;
4867;SDS011;2448;48.086;10.862;2023-03-23T02:06:21;4.63;;;3.20;;
4867;SDS011;2448;48.086;10.862;2023-03-23T02:09:01;5.10;;;3.90;;
4867;SDS011;2448;48.086;10.862;2023-03-23T02:11:27;3.77;;;3.50;;
4867;SDS011;2448;48.086;10.862;2023-03-23T02:13:53;3.40;;;2.77;;
4867;SDS011;2448;48.086;10.862;2023-03-23T02:16:36;4.27;;;3.67;;
4867;SDS011;2448;48.086;10.862;2023-03-23T02:19:13;2.97;;;2.70;;
4867;SDS011;2448;48.086;10.862;2023-03-23T02:27:10;6.83;;;3.23;;
4867;SDS011;2448;48.086;10.862;2023-03-23T02:34:53;5.13;;;3.10;;
4867;SDS011;2448;48.086;10.862;2023-03-23T02:37:24;5.57;;;3.10;;
4867;SDS011;2448;48.086;10.862;2023-03-23T02:39:52;16.80;;;3.00;;
4867;SDS011;2448;48.086;10.862;2023-03-23T02:42:23;5.90;;;3.27;;
4867;SDS011;2448;48.086;10.862;2023-03-23T02:44:51;31.67;;;3.83;;
4867;SDS011;2448;48.086;10.862;2023-03-23T02:47:19;3.17;;;2.87;;
4867;SDS011;2448;48.086;10.862;2023-03-23T02:49:46;6.37;;;2.87;;
4867;SDS011;2448;48.086;10.862;2023-03-23T02:52:14;4.37;;;3.10;;
4867;SDS011;2448;48.086;10.862;2023-03-23T02:54:42;2.70;;;2.43;;
4867;SDS011;2448;48.086;10.862;2023-03-23T02:57:09;6.47;;;3.50;;
4867;SDS011;2448;48.086;10.862;2023-03-23T02:59:39;3.93;;;3.23;;
4867;SDS011;2448;48.086;10.862;2023-03-23T03:04:30;14.10;;;3.17;;
4867;SDS011;2448;48.086;10.862;2023-03-23T03:07:02;4.23;;;3.33;;
4867;SDS011;2448;48.086;10.862;2023-03-23T03:12:15;2.90;;;2.57;;
4867;SDS011;2448;48.086;10.862;2023-03-23T03:17:28;3.07;;;2.87;;
4867;SDS011;2448;48.086;10.862;2023-03-23T03:19:57;4.00;;;2.77;;
4867;SDS011;2448;48.086;10.862;2023-03-23T03:22:25;3.57;;;3.27;;
4867;SDS011;2448;48.086;10.862;2023-03-23T03:24:55;2.73;;;2.50;;
4867;SDS011;2448;48.086;10.862;2023-03-23T03:27:22;4.03;;;2.77;;
4867;SDS011;2448;48.086;10.862;2023-03-23T03:30:00;2.87;;;2.67;;
4867;SDS011;2448;48.086;10.862;2023-03-23T03:32:34;2.67;;;2.47;;
4867;SDS011;2448;48.086;10.862;2023-03-23T03:35:04;4.40;;;3.10;;
4867;SDS011;2448;48.086;10.862;2023-03-23T03:37:34;2.97;;;2.77;;
4867;SDS011;2448;48.086;10.862;2023-03-23T03:40:06;6.60;;;3.00;;
4867;SDS011;2448;48.086;10.862;2023-03-23T03:42:37;2.83;;;2.40;;
4867;SDS011;2448;48.086;10.862;2023-03-23T03:45:02;2.90;;;2.60;;
4867;SDS011;2448;48.086;10.862;2023-03-23T03:47:27;3.33;;;2.60;;
4867;SDS011;2448;48.086;10.862;2023-03-23T03:49:53;7.70;;;2.83;;
4867;SDS011;2448;48.086;10.862;2023-03-23T03:52:18;2.77;;;2.60;;
4867;SDS011;2448;48.086;10.862;2023-03-23T03:54:44;8.50;;;2.93;;
4867;SDS011;2448;48.086;10.862;2023-03-23T03:57:10;3.07;;;2.73;;
4867;SDS011;2448;48.086;10.862;2023-03-23T03:59:45;3.27;;;3.00;;
4867;SDS011;2448;48.086;10.862;2023-03-23T04:02:35;2.77;;;2.57;;
4867;SDS011;2448;48.086;10.862;2023-03-23T04:05:01;3.47;;;3.17;;
4867;SDS011;2448;48.086;10.862;2023-03-23T04:07:29;4.20;;;2.90;;
4867;SDS011;2448;48.086;10.862;2023-03-23T04:09:56;3.23;;;3.00;;
4867;SDS011;2448;48.086;10.862;2023-03-23T04:12:21;3.37;;;2.53;;
4867;SDS011;2448;48.086;10.862;2023-03-23T04:15:07;3.00;;;2.70;;
4867;SDS011;2448;48.086;10.862;2023-03-23T04:17:34;16.63;;;3.03;;
4867;SDS011;2448;48.086;10.862;2023-03-23T04:20:01;5.30;;;3.30;;
4867;SDS011;2448;48.086;10.862;2023-03-23T04:22:37;5.13;;;2.77;;
4867;SDS011;2448;48.086;10.862;2023-03-23T04:25:02;3.53;;;3.23;;
4867;SDS011;2448;48.086;10.862;2023-03-23T04:27:33;5.70;;;3.27;;
4867;SDS011;2448;48.086;10.862;2023-03-23T04:30:00;6.03;;;3.20;;
4867;SDS011;2448;48.086;10.862;2023-03-23T04:32:41;3.17;;;2.57;;
4867;SDS011;2448;48.086;10.862;2023-03-23T04:35:08;2.93;;;2.73;;
4867;SDS011;2448;48.086;10.862;2023-03-23T04:37:40;16.80;;;2.80;;
4867;SDS011;2448;48.086;10.862;2023-03-23T04:40:07;4.43;;;3.07;;
4867;SDS011;2448;48.086;10.862;2023-03-23T04:42:36;2.73;;;2.30;;
4867;SDS011;2448;48.086;10.862;2023-03-23T04:45:29;6.97;;;2.70;;
4867;SDS011;2448;48.086;10.862;2023-03-23T04:47:58;5.30;;;3.20;;
4867;SDS011;2448;48.086;10.862;2023-03-23T04:50:33;6.70;;;2.77;;
4867;SDS011;2448;48.086;10.862;2023-03-23T04:53:07;3.53;;;3.10;;
4867;SDS011;2448;48.086;10.862;2023-03-23T04:55:34;2.63;;;2.43;;
4867;SDS011;2448;48.086;10.862;2023-03-23T04:58:05;2.90;;;2.70;;
4867;SDS011;2448;48.086;10.862;2023-03-23T05:00:49;2.40;;;2.27;;
4867;SDS011;2448;48.086;10.862;2023-03-23T05:03:18;3.60;;;2.93;;
4867;SDS011;2448;48.086;10.862;2023-03-23T05:05:45;3.07;;;2.80;;
4867;SDS011;2448;48.086;10.862;2023-03-23T05:08:18;3.60;;;3.30;;
4867;SDS011;2448;48.086;10.862;2023-03-23T05:10:54;5.17;;;2.50;;
4867;SDS011;2448;48.086;10.862;2023-03-23T05:13:22;3.03;;;2.70;;
4867;SDS011;2448;48.086;10.862;2023-03-23T05:15:51;3.40;;;2.83;;
4867;SDS011;2448;48.086;10.862;2023-03-23T05:18:17;2.27;;;2.17;;
4867;SDS011;2448;48.086;10.862;2023-03-23T05:20:42;3.03;;;2.83;;
4867;SDS011;2448;48.086;10.862;2023-03-23T05:23:14;3.80;;;3.00;;
4867;SDS011;2448;48.086;10.862;2023-03-23T05:25:40;4.10;;;3.17;;
4867;SDS011;2448;48.086;10.862;2023-03-23T05:28:17;3.40;;;3.13;;
4867;SDS011;2448;48.086;10.862;2023-03-23T05:30:57;2.33;;;2.23;;
4867;SDS011;2448;48.086;10.862;2023-03-23T05:33:26;4.43;;;2.70;;
4867;SDS011;2448;48.086;10.862;2023-03-23T05:36:01;4.93;;;3.37;;
4867;SDS011;2448;48.086;10.862;2023-03-23T05:38:35;2.87;;;2.57;;
4867;SDS011;2448;48.086;10.862;2023-03-23T05:41:02;6.83;;;3.00;;
4867;SDS011;2448;48.086;10.862;2023-03-23T05:43:35;5.30;;;3.43;;
4867;SDS011;2448;48.086;10.862;2023-03-23T05:46:21;4.27;;;2.70;;
4867;SDS011;2448;48.086;10.862;2023-03-23T05:48:48;2.80;;;2.60;;
4867;SDS011;2448;48.086;10.862;2023-03-23T05:51:16;4.77;;;3.13;;
4867;SDS011;2448;48.086;10.862;2023-03-23T05:53:43;8.97;;;2.67;;
4867;SDS011;2448;48.086;10.862;2023-03-23T05:56:11;8.00;;;2.97;;
4867;SDS011;2448;48.086;10.862;2023-03-23T05:58:54;2.40;;;2.30;;
4867;SDS011;2448;48.086;10.862;2023-03-23T06:01:20;5.67;;;2.90;;
4867;SDS011;2448;48.086;10.862;2023-03-23T06:03:46;3.00;;;2.70;;
4867;SDS011;2448;48.086;10.862;2023-03-23T06:06:18;2.60;;;2.40;;
4867;SDS011;2448;48.086;10.862;2023-03-23T06:08:51;4.23;;;3.00;;
4867;SDS011;2448;48.086;10.862;2023-03-23T06:11:25;3.10;;;2.70;;
4867;SDS011;2448;48.086;10.862;2023-03-23T06:14:08;12.53;;;2.97;;
4867;SDS011;2448;48.086;10.862;2023-03-23T06:16:34;3.10;;;2.57;;
4867;SDS011;2448;48.086;10.862;2023-03-23T06:19:05;11.03;;;2.50;;
4867;SDS011;2448;48.086;10.862;2023-03-23T06:21:32;31.07;;;3.20;;
4867;SDS011;2448;48.086;10.862;2023-03-23T06:24:02;2.93;;;2.53;;
4867;SDS011;2448;48.086;10.862;2023-03-23T06:26:39;3.03;;;2.83;;
4867;SDS011;2448;48.086;10.862;2023-03-23T06:29:09;8.17;;;2.73;;
4867;SDS011;2448;48.086;10.862;2023-03-23T06:31:50;2.47;;;2.37;;
4867;SDS011;2448;48.086;10.862;2023-03-23T06:34:16;2.70;;;2.50;;
4867;SDS011;2448;48.086;10.862;2023-03-23T06:37:00;2.70;;;2.50;;
4867;SDS011;2448;48.086;10.862;2023-03-23T06:39:50;2.90;;;2.23;;
4867;SDS011;2448;48.086;10.862;2023-03-23T06:42:30;7.63;;;2.60;;
4867;SDS011;2448;48.086;10.862;2023-03-23T06:45:33;2.33;;;2.13;;
4867;SDS011;2448;48.086;10.862;2023-03-23T06:48:19;2.90;;;2.70;;
4867;SDS011;2448;48.086;10.862;2023-03-23T06:50:45;10.57;;;2.67;;
4867;SDS011;2448;48.086;10.862;2023-03-23T06:53:13;2.60;;;2.40;;
4867;SDS011;2448;48.086;10.862;2023-03-23T06:55:38;4.93;;;3.03;;
4867;SDS011;2448;48.086;10.862;2023-03-23T06:58:04;3.87;;;2.67;;
4867;SDS011;2448;48.086;10.862;2023-03-23T07:00:31;3.80;;;3.20;;
4867;SDS011;2448;48.086;10.862;2023-03-23T07:02:57;2.90;;;2.70;;
4867;SDS011;2448;48.086;10.862;2023-03-23T07:05:22;3.10;;;2.80;;
4867;SDS011;2448;48.086;10.862;2023-03-23T07:07:49;4.50;;;2.90;;
4867;SDS011;2448;48.086;10.862;2023-03-23T07:10:27;2.63;;;2.43;;
4867;SDS011;2448;48.086;10.862;2023-03-23T07:12:53;3.53;;;2.70;;
4867;SDS011;2448;48.086;10.862;2023-03-23T07:15:18;3.10;;;2.77;;
4867;SDS011;2448;48.086;10.862;2023-03-23T07:17:48;5.30;;;2.47;;
4867;SDS011;2448;48.086;10.862;2023-03-23T07:20:34;3.37;;;2.63;;
4867;SDS011;2448;48.086;10.862;2023-03-23T07:22:59;2.43;;;2.27;;
4867;SDS011;2448;48.086;10.862;2023-03-23T07:25:43;3.00;;;2.33;;
4867;SDS011;2448;48.086;10.862;2023-03-23T07:28:14;3.77;;;2.33;;
4867;SDS011;2448;48.086;10.862;2023-03-23T07:30:40;10.33;;;2.37;;
4867;SDS011;2448;48.086;10.862;2023-03-23T07:33:08;8.40;;;2.13;;
4867;SDS011;2448;48.086;10.862;2023-03-23T07:35:34;3.73;;;2.60;;
4867;SDS011;2448;48.086;10.862;2023-03-23T07:38:03;5.40;;;2.40;;
4867;SDS011;2448;48.086;10.862;2023-03-23T07:40:29;3.00;;;2.80;;
4867;SDS011;2448;48.086;10.862;2023-03-23T07:43:01;6.00;;;2.40;;
4867;SDS011;2448;48.086;10.862;2023-03-23T07:45:48;4.67;;;3.37;;
4867;SDS011;2448;48.086;10.862;2023-03-23T07:48:15;4.23;;;3.13;;
4867;SDS011;2448;48.086;10.862;2023-03-23T07:50:40;4.27;;;1.90;;
4867;SDS011;2448;48.086;10.862;2023-03-23T07:53:09;2.30;;;1.70;;
4867;SDS011;2448;48.086;10.862;2023-03-23T07:55:36;9.17;;;1.80;;
4867;SDS011;2448;48.086;10.862;2023-03-23T07:58:14;1.47;;;1.47;;
4867;SDS011;2448;48.086;10.862;2023-03-23T08:00:45;1.70;;;1.60;;
4867;SDS011;2448;48.086;10.862;2023-03-23T08:03:11;1.50;;;1.40;;
4867;SDS011;2448;48.086;10.862;2023-03-23T08:06:12;13.73;;;1.90;;
4867;SDS011;2448;48.086;10.862;2023-03-23T08:09:00;2.50;;;2.10;;
4867;SDS011;2448;48.086;10.862;2023-03-23T08:11:38;1.67;;;1.47;;
4867;SDS011;2448;48.086;10.862;2023-03-23T08:14:12;2.10;;;2.00;;
4867;SDS011;2448;48.086;10.862;2023-03-23T08:16:57;3.00;;;1.73;;
4867;SDS011;2448;48.086;10.862;2023-03-23T08:19:44;12.83;;;2.90;;
4867;SDS011;2448;48.086;10.862;2023-03-23T08:22:33;4.33;;;2.00;;
4867;SDS011;2448;48.086;10.862;2023-03-23T08:25:30;1.50;;;1.40;;
4867;SDS011;2448;48.086;10.862;2023-03-23T08:28:12;1.50;;;1.40;;
4867;SDS011;2448;48.086;10.862;2023-03-23T08:30:59;1.90;;;1.80;;
4867;SDS011;2448;48.086;10.862;2023-03-23T08:33:33;3.23;;;2.17;;
4867;SDS011;2448;48.086;10.862;2023-03-23T08:36:19;1.60;;;1.50;;
4867;SDS011;2448;48.086;10.862;2023-03-23T08:38:54;1.70;;;1.53;;
4867;SDS011;2448;48.086;10.862;2023-03-23T08:41:39;7.10;;;2.07;;
4867;SDS011;2448;48.086;10.862;2023-03-23T08:44:33;2.10;;;1.90;;
4867;SDS011;2448;48.086;10.862;2023-03-23T08:47:14;5.30;;;2.20;;
4867;SDS011;2448;48.086;10.862;2023-03-23T08:50:01;13.70;;;1.97;;
4867;SDS011;2448;48.086;10.862;2023-03-23T08:52:43;2.23;;;2.10;;
4867;SDS011;2448;48.086;10.862;2023-03-23T08:55:29;2.83;;;1.93;;
4867;SDS011;2448;48.086;10.862;2023-03-23T08:58:12;1.63;;;1.63;;
4867;SDS011;2448;48.086;10.862;2023-03-23T09:00:56;4.07;;;2.30;;
4867;SDS011;2448;48.086;10.862;2023-03-23T09:03:40;2.20;;;2.10;;
4867;SDS011;2448;48.086;10.862;2023-03-23T09:06:32;1.73;;;1.63;;
4867;SDS011;2448;48.086;10.862;2023-03-23T09:08:58;2.90;;;2.40;;
4867;SDS011;2448;48.086;10.862;2023-03-23T09:11:25;1.90;;;1.80;;
4867;SDS011;2448;48.086;10.862;2023-03-23T09:13:51;2.60;;;1.87;;
4867;SDS011;2448;48.086;10.862;2023-03-23T09:16:17;1.90;;;1.80;;
4867;SDS011;2448;48.086;10.862;2023-03-23T09:18:42;1.80;;;1.70;;
4867;SDS011;2448;48.086;10.862;2023-03-23T09:21:07;4.47;;;2.47;;
4867;SDS011;2448;48.086;10.862;2023-03-23T09:23:34;1.80;;;1.70;;
4867;SDS011;2448;48.086;10.862;2023-03-23T09:26:00;2.00;;;1.90;;
4867;SDS011;2448;48.086;10.862;2023-03-23T09:28:26;7.50;;;2.10;;
4867;SDS011;2448;48.086;10.862;2023-03-23T09:30:51;2.43;;;2.30;;
4867;SDS011;2448;48.086;10.862;2023-03-23T09:33:20;4.43;;;2.63;;
4867;SDS011;2448;48.086;10.862;2023-03-23T09:35:45;3.37;;;2.53;;
4867;SDS011;2448;48.086;10.862;2023-03-23T09:38:11;2.33;;;2.17;;
4867;SDS011;2448;48.086;10.862;2023-03-23T09:46:03;8.73;;;2.07;;
4867;SDS011;2448;48.086;10.862;2023-03-23T09:53:53;2.47;;;2.03;;
4867;SDS011;2448;48.086;10.862;2023-03-23T09:56:20;2.30;;;1.80;;
4867;SDS011;2448;48.086;10.862;2023-03-23T09:58:58;26.63;;;1.67;;
4867;SDS011;2448;48.086;10.862;2023-03-23T10:01:26;2.73;;;2.00;;
4867;SDS011;2448;48.086;10.862;2023-03-23T10:03:55;2.70;;;1.80;;
4867;SDS011;2448;48.086;10.862;2023-03-23T10:06:23;10.00;;;1.90;;
4867;SDS011;2448;48.086;10.862;2023-03-23T10:08:50;2.27;;;2.07;;
4867;SDS011;2448;48.086;10.862;2023-03-23T10:11:20;3.10;;;2.33;;
4867;SDS011;2448;48.086;10.862;2023-03-23T10:16:31;1.70;;;1.60;;
4867;SDS011;2448;48.086;10.862;2023-03-23T10:21:25;5.03;;;2.90;;
4867;SDS011;2448;48.086;10.862;2023-03-23T10:26:28;1.97;;;1.80;;
4867;SDS011;2448;48.086;10.862;2023-03-23T10:28:58;2.30;;;2.10;;
4867;SDS011;2448;48.086;10.862;2023-03-23T10:31:28;2.33;;;2.13;;
4867;SDS011;2448;48.086;10.862;2023-03-23T10:33:56;2.17;;;1.97;;
4867;SDS011;2448;48.086;10.862;2023-03-23T10:36:26;2.70;;;2.30;;
4867;SDS011;2448;48.086;10.862;2023-03-23T10:41:37;3.90;;;2.40;;
4867;SDS011;2448;48.086;10.862;2023-03-23T10:44:19;2.03;;;1.93;;
4867;SDS011;2448;48.086;10.862;2023-03-23T10:46:50;3.37;;;2.50;;
4867;SDS011;2448;48.086;10.862;2023-03-23T10:49:26;5.07;;;2.30;;
4867;SDS011;2448;48.086;10.862;2023-03-23T10:54:36;12.33;;;2.53;;
4867;SDS011;2448;48.086;10.862;2023-03-23T10:57:12;1.90;;;1.80;;
4867;SDS011;2448;48.086;10.862;2023-03-23T10:59:38;2.00;;;1.90;;
4867;SDS011;2448;48.086;10.862;2023-03-23T11:02:13;3.90;;;2.23;;
4867;SDS011;2448;48.086;10.862;2023-03-23T11:04:39;2.30;;;2.10;;
4867;SDS011;2448;48.086;10.862;2023-03-23T11:07:05;2.30;;;1.70;;
4867;SDS011;2448;48.086;10.862;2023-03-23T11:09:39;2.60;;;2.40;;
4867;SDS011;2448;48.086;10.862;2023-03-23T11:12:15;2.50;;;2.30;;
4867;SDS011;2448;48.086;10.862;2023-03-23T11:14:40;2.40;;;2.20;;
4867;SDS011;2448;48.086;10.862;2023-03-23T11:17:19;3.30;;;1.93;;
4867;SDS011;2448;48.086;10.862;2023-03-23T11:19:45;2.10;;;1.90;;
4867;SDS011;2448;48.086;10.862;2023-03-23T11:22:24;6.70;;;2.63;;
4867;SDS011;2448;48.086;10.862;2023-03-23T11:25:00;2.33;;;2.13;;
4867;SDS011;2448;48.086;10.862;2023-03-23T11:27:26;2.10;;;1.97;;
4867;SDS011;2448;48.086;10.862;2023-03-23T11:32:18;1.80;;;1.70;;
4867;SDS011;2448;48.086;10.862;2023-03-23T11:34:45;1.73;;;1.63;;
4867;SDS011;2448;48.086;10.862;2023-03-23T11:37:13;2.30;;;2.20;;
4867;SDS011;2448;48.086;10.862;2023-03-23T11:39:57;2.40;;;2.13;;
4867;SDS011;2448;48.086;10.862;2023-03-23T11:48:28;1.77;;;1.67;;
4867;SDS011;2448;48.086;10.862;2023-03-23T11:55:50;2.10;;;1.90;;
4867;SDS011;2448;48.086;10.862;2023-03-23T11:58:16;2.03;;;1.90;;
4867;SDS011;2448;48.086;10.862;2023-03-23T12:00:58;1.83;;;1.73;;
4867;SDS011;2448;48.086;10.862;2023-03-23T12:03:24;1.50;;;1.43;;
4867;SDS011;2448;48.086;10.862;2023-03-23T12:26:15;1.73;;;1.63;;
4867;SDS011;2448;48.086;10.862;2023-03-23T12:44:06;1.40;;;1.30;;
4867;SDS011;2448;48.086;10.862;2023-03-23T12:49:05;1.47;;;1.40;;
4867;SDS011;2448;48.086;10.862;2023-03-23T12:51:37;2.93;;;1.77;;
4867;SDS011;2448;48.086;10.862;2023-03-23T12:56:54;1.50;;;1.40;;
4867;SDS011;2448;48.086;10.862;2023-03-23T12:59:24;1.27;;;1.27;;
4867;SDS011;2448;48.086;10.862;2023-03-23T13:02:00;1.63;;;1.53;;
4867;SDS011;2448;48.086;10.862;2023-03-23T13:04:32;1.60;;;1.50;;
4867;SDS011;2448;48.086;10.862;2023-03-23T13:06:59;2.47;;;1.40;;
4867;SDS011;2448;48.086;10.862;2023-03-23T13:09:40;1.40;;;1.40;;
4867;SDS011;2448;48.086;10.862;2023-03-23T13:12:07;4.10;;;1.90;;
4867;SDS011;2448;48.086;10.862;2023-03-23T13:24:50;7.80;;;1.60;;
4867;SDS011;2448;48.086;10.862;2023-03-23T13:27:16;4.93;;;1.70;;
4867;SDS011;2448;48.086;10.862;2023-03-23T13:29:45;1.50;;;1.40;;
4867;SDS011;2448;48.086;10.862;2023-03-23T13:32:20;2.80;;;1.50;;
4867;SDS011;2448;48.086;10.862;2023-03-23T13:34:46;1.53;;;1.40;;
4867;SDS011;2448;48.086;10.862;2023-03-23T13:37:20;5.60;;;1.63;;
4867;SDS011;2448;48.086;10.862;2023-03-23T14:05:29;2.03;;;1.83;;
4867;SDS011;2448;48.086;10.862;2023-03-23T14:08:03;1.70;;;1.60;;
4867;SDS011;2448;48.086;10.862;2023-03-23T14:13:05;3.23;;;1.93;;
4867;SDS011;2448;48.086;10.862;2023-03-23T14:15:36;1.57;;;1.47;;
4867;SDS011;2448;48.086;10.862;2023-03-23T14:18:03;1.40;;;1.40;;
4867;SDS011;2448;48.086;10.862;2023-03-23T14:20:33;2.73;;;1.83;;
4867;SDS011;2448;48.086;10.862;2023-03-23T14:22:59;1.20;;;1.10;;
4867;SDS011;2448;48.086;10.862;2023-03-23T14:25:31;1.47;;;1.37;;
4867;SDS011;2448;48.086;10.862;2023-03-23T14:27:58;1.37;;;1.37;;
4867;SDS011;2448;48.086;10.862;2023-03-23T14:30:27;1.60;;;1.50;;
4867;SDS011;2448;48.086;10.862;2023-03-23T14:33:03;1.10;;;1.10;;
4867;SDS011;2448;48.086;10.862;2023-03-23T14:35:30;1.23;;;1.23;;
4867;SDS011;2448;48.086;10.862;2023-03-23T14:37:56;1.50;;;1.40;;
4867;SDS011;2448;48.086;10.862;2023-03-23T14:40:22;1.63;;;1.50;;
4867;SDS011;2448;48.086;10.862;2023-03-23T14:42:49;1.47;;;1.43;;
4867;SDS011;2448;48.086;10.862;2023-03-23T14:45:16;1.57;;;1.47;;
4867;SDS011;2448;48.086;10.862;2023-03-23T14:47:43;2.73;;;1.67;;
4867;SDS011;2448;48.086;10.862;2023-03-23T14:50:26;1.83;;;1.50;;
4867;SDS011;2448;48.086;10.862;2023-03-23T14:52:56;1.60;;;1.47;;
4867;SDS011;2448;48.086;10.862;2023-03-23T14:55:22;1.70;;;1.60;;
4867;SDS011;2448;48.086;10.862;2023-03-23T14:57:48;2.73;;;1.93;;
4867;SDS011;2448;48.086;10.862;2023-03-23T15:00:15;1.63;;;1.53;;
4867;SDS011;2448;48.086;10.862;2023-03-23T15:02:41;1.80;;;1.70;;
4867;SDS011;2448;48.086;10.862;2023-03-23T15:05:31;1.80;;;1.70;;
4867;SDS011;2448;48.086;10.862;2023-03-23T15:07:55;1.90;;;1.60;;
4867;SDS011;2448;48.086;10.862;2023-03-23T15:10:22;1.77;;;1.50;;
4867;SDS011;2448;48.086;10.862;2023-03-23T15:12:48;2.43;;;1.43;;
4867;SDS011;2448;48.086;10.862;2023-03-23T15:17:58;3.37;;;1.80;;
4867;SDS011;2448;48.086;10.862;2023-03-23T15:20:32;1.77;;;1.67;;
4867;SDS011;2448;48.086;10.862;2023-03-23T15:23:13;1.70;;;1.60;;
4867;SDS011;2448;48.086;10.862;2023-03-23T15:25:39;1.83;;;1.60;;
4867;SDS011;2448;48.086;10.862;2023-03-23T15:28:22;3.17;;;1.70;;
4867;SDS011;2448;48.086;10.862;2023-03-23T15:31:01;1.60;;;1.50;;
4867;SDS011;2448;48.086;10.862;2023-03-23T15:33:27;1.73;;;1.63;;
4867;SDS011;2448;48.086;10.862;2023-03-23T15:35:58;1.63;;;1.50;;
4867;SDS011;2448;48.086;10.862;2023-03-23T15:38:29;2.47;;;1.70;;
4867;SDS011;2448;48.086;10.862;2023-03-23T15:40:56;2.33;;;1.93;;
4867;SDS011;2448;48.086;10.862;2023-03-23T15:43:23;1.83;;;1.70;;
4867;SDS011;2448;48.086;10.862;2023-03-23T15:45:53;3.10;;;1.77;;
4867;SDS011;2448;48.086;10.862;2023-03-23T15:48:21;1.87;;;1.77;;
4867;SDS011;2448;48.086;10.862;2023-03-23T15:50:46;2.30;;;2.10;;
4867;SDS011;2448;48.086;10.862;2023-03-23T15:53:19;1.47;;;1.37;;
4867;SDS011;2448;48.086;10.862;2023-03-23T15:55:47;2.20;;;1.50;;
4867;SDS011;2448;48.086;10.862;2023-03-23T15:58:12;1.40;;;1.40;;
4867;SDS011;2448;48.086;10.862;2023-03-23T16:00:38;3.90;;;1.60;;
4867;SDS011;2448;48.086;10.862;2023-03-23T16:03:05;2.40;;;1.53;;
4867;SDS011;2448;48.086;10.862;2023-03-23T16:05:31;1.50;;;1.40;;
4867;SDS011;2448;48.086;10.862;2023-03-23T16:07:56;2.30;;;1.77;;
4867;SDS011;2448;48.086;10.862;2023-03-23T16:10:22;2.73;;;1.90;;
4867;SDS011;2448;48.086;10.862;2023-03-23T16:12:48;7.70;;;1.77;;
4867;SDS011;2448;48.086;10.862;2023-03-23T16:15:13;1.63;;;1.53;;
4867;SDS011;2448;48.086;10.862;2023-03-23T16:17:39;1.60;;;1.50;;
4867;SDS011;2448;48.086;10.862;2023-03-23T16:20:09;4.40;;;2.00;;
4867;SDS011;2448;48.086;10.862;2023-03-23T16:22:35;3.03;;;1.87;;
4867;SDS011;2448;48.086;10.862;2023-03-23T16:25:01;2.00;;;1.90;;
4867;SDS011;2448;48.086;10.862;2023-03-23T16:27:26;1.80;;;1.70;;
4867;SDS011;2448;48.086;10.862;2023-03-23T16:29:51;4.70;;;2.53;;
4867;SDS011;2448;48.086;10.862;2023-03-23T16:32:17;1.80;;;1.70;;
4867;SDS011;2448;48.086;10.862;2023-03-23T16:34:43;1.97;;;1.77;;
4867;SDS011;2448;48.086;10.862;2023-03-23T16:37:09;3.10;;;2.90;;
4867;SDS011;2448;48.086;10.862;2023-03-23T16:39:36;1.87;;;1.73;;
4867;SDS011;2448;48.086;10.862;2023-03-23T16:42:01;2.20;;;1.83;;
4867;SDS011;2448;48.086;10.862;2023-03-23T16:44:26;1.87;;;1.77;;
4867;SDS011;2448;48.086;10.862;2023-03-23T16:46:52;1.63;;;1.53;;
4867;SDS011;2448;48.086;10.862;2023-03-23T16:49:17;1.83;;;1.73;;
4867;SDS011;2448;48.086;10.862;2023-03-23T16:51:42;1.60;;;1.50;;
4867;SDS011;2448;48.086;10.862;2023-03-23T16:54:08;6.97;;;1.83;;
4867;SDS011;2448;48.086;10.862;2023-03-23T16:56:34;5.10;;;2.20;;
4867;SDS011;2448;48.086;10.862;2023-03-23T16:58:59;3.40;;;1.90;;
4867;SDS011;2448;48.086;10.862;2023-03-23T17:01:24;1.70;;;1.60;;
4867;SDS011;2448;48.086;10.862;2023-03-23T17:03:50;3.43;;;2.43;;
4867;SDS011;2448;48.086;10.862;2023-03-23T17:06:15;3.33;;;1.90;;
4867;SDS011;2448;48.086;10.862;2023-03-23T17:08:40;2.80;;;2.10;;
4867;SDS011;2448;48.086;10.862;2023-03-23T17:11:06;2.33;;;2.03;;
4867;SDS011;2448;48.086;10.862;2023-03-23T17:13:31;2.10;;;2.00;;
4867;SDS011;2448;48.086;10.862;2023-03-23T17:15:56;2.07;;;1.97;;
4867;SDS011;2448;48.086;10.862;2023-03-23T17:18:22;1.70;;;1.60;;
4867;SDS011;2448;48.086;10.862;2023-03-23T17:20:49;1.87;;;1.77;;
4867;SDS011;2448;48.086;10.862;2023-03-23T17:23:14;4.33;;;1.90;;
4867;SDS011;2448;48.086;10.862;2023-03-23T17:25:42;2.03;;;1.90;;
4867;SDS011;2448;48.086;10.862;2023-03-23T17:28:07;3.43;;;2.27;;
4867;SDS011;2448;48.086;10.862;2023-03-23T17:30:33;4.80;;;2.50;;
4867;SDS011;2448;48.086;10.862;2023-03-23T17:32:59;3.90;;;2.20;;
4867;SDS011;2448;48.086;10.862;2023-03-23T17:35:24;5.67;;;3.10;;
4867;SDS011;2448;48.086;10.862;2023-03-23T17:37:50;3.00;;;2.07;;
4867;SDS011;2448;48.086;10.862;2023-03-23T17:40:15;6.90;;;2.57;;